sensor_id;sensor_type;location;lat;lon;timestamp;P1;durP1;ratioP1;P2;durP2;ratioP2
22883;SDS011;13386;24.786;110.488;2023-05-10T00:01:44;34.42;;;16.63;;
22883;SDS011;13386;24.786;110.488;2023-05-10T00:04:14;38.65;;;18.27;;
22883;SDS011;13386;24.786;110.488;2023-05-10T00:06:44;35.70;;;16.70;;
22883;SDS011;13386;24.786;110.488;2023-05-10T00:09:16;34.58;;;16.17;;
22883;SDS011;13386;24.786;110.488;2023-05-10T00:11:46;37.67;;;15.98;;
22883;SDS011;13386;24.786;110.488;2023-05-10T00:14:16;32.58;;;15.85;;
22883;SDS011;13386;24.786;110.488;2023-05-10T00:16:47;37.80;;;16.60;;
22883;SDS011;13386;24.786;110.488;2023-05-10T00:19:17;34.30;;;16.42;;
22883;SDS011;13386;24.786;110.488;2023-05-10T00:21:47;34.70;;;15.35;;
22883;SDS011;13386;24.786;110.488;2023-05-10T00:24:19;45.60;;;19.02;;
22883;SDS011;13386;24.786;110.488;2023-05-10T00:26:49;34.50;;;15.65;;
22883;SDS011;13386;24.786;110.488;2023-05-10T00:29:19;38.85;;;16.35;;
22883;SDS011;13386;24.786;110.488;2023-05-10T00:31:49;36.88;;;16.02;;
22883;SDS011;13386;24.786;110.488;2023-05-10T00:34:19;37.25;;;16.98;;
22883;SDS011;13386;24.786;110.488;2023-05-10T00:36:51;37.25;;;17.17;;
22883;SDS011;13386;24.786;110.488;2023-05-10T00:39:23;34.85;;;15.88;;
22883;SDS011;13386;24.786;110.488;2023-05-10T00:41:53;32.53;;;16.60;;
22883;SDS011;13386;24.786;110.488;2023-05-10T00:44:23;38.60;;;16.17;;
22883;SDS011;13386;24.786;110.488;2023-05-10T00:46:53;34.67;;;16.70;;
22883;SDS011;13386;24.786;110.488;2023-05-10T00:49:24;38.00;;;16.67;;
22883;SDS011;13386;24.786;110.488;2023-05-10T00:51:54;35.10;;;16.83;;
22883;SDS011;13386;24.786;110.488;2023-05-10T00:54:28;38.08;;;17.42;;
22883;SDS011;13386;24.786;110.488;2023-05-10T00:56:58;38.63;;;17.30;;
22883;SDS011;13386;24.786;110.488;2023-05-10T00:59:28;34.60;;;15.85;;
22883;SDS011;13386;24.786;110.488;2023-05-10T01:01:59;33.78;;;16.30;;
22883;SDS011;13386;24.786;110.488;2023-05-10T01:04:30;36.17;;;15.80;;
22883;SDS011;13386;24.786;110.488;2023-05-10T01:07:00;34.15;;;16.20;;
22883;SDS011;13386;24.786;110.488;2023-05-10T01:09:32;35.17;;;16.80;;
22883;SDS011;13386;24.786;110.488;2023-05-10T01:12:02;35.72;;;16.33;;
22883;SDS011;13386;24.786;110.488;2023-05-10T01:14:33;34.10;;;15.82;;
22883;SDS011;13386;24.786;110.488;2023-05-10T01:17:04;34.03;;;16.05;;
22883;SDS011;13386;24.786;110.488;2023-05-10T01:19:36;35.63;;;16.23;;
22883;SDS011;13386;24.786;110.488;2023-05-10T01:22:15;32.22;;;15.85;;
22883;SDS011;13386;24.786;110.488;2023-05-10T01:27:29;33.85;;;16.08;;
22883;SDS011;13386;24.786;110.488;2023-05-10T01:30:08;36.67;;;16.05;;
22883;SDS011;13386;24.786;110.488;2023-05-10T01:32:49;36.67;;;17.13;;
22883;SDS011;13386;24.786;110.488;2023-05-10T01:35:25;34.90;;;15.07;;
22883;SDS011;13386;24.786;110.488;2023-05-10T01:37:58;30.63;;;14.88;;
22883;SDS011;13386;24.786;110.488;2023-05-10T01:40:30;33.55;;;14.48;;
22883;SDS011;13386;24.786;110.488;2023-05-10T01:43:02;26.02;;;13.73;;
22883;SDS011;13386;24.786;110.488;2023-05-10T01:45:35;29.15;;;14.60;;
22883;SDS011;13386;24.786;110.488;2023-05-10T01:48:09;32.22;;;14.50;;
22883;SDS011;13386;24.786;110.488;2023-05-10T01:50:41;33.95;;;15.20;;
22883;SDS011;13386;24.786;110.488;2023-05-10T01:53:12;34.22;;;15.02;;
22883;SDS011;13386;24.786;110.488;2023-05-10T01:55:43;30.13;;;14.63;;
22883;SDS011;13386;24.786;110.488;2023-05-10T01:58:15;33.00;;;15.02;;
22883;SDS011;13386;24.786;110.488;2023-05-10T02:00:48;37.60;;;15.52;;
22883;SDS011;13386;24.786;110.488;2023-05-10T02:03:21;31.15;;;14.63;;
22883;SDS011;13386;24.786;110.488;2023-05-10T02:05:52;32.08;;;14.80;;
22883;SDS011;13386;24.786;110.488;2023-05-10T02:08:23;30.85;;;15.18;;
22883;SDS011;13386;24.786;110.488;2023-05-10T02:10:54;30.02;;;14.93;;
22883;SDS011;13386;24.786;110.488;2023-05-10T02:13:25;30.98;;;14.68;;
22883;SDS011;13386;24.786;110.488;2023-05-10T02:15:57;28.88;;;14.65;;
22883;SDS011;13386;24.786;110.488;2023-05-10T02:18:29;31.63;;;14.75;;
22883;SDS011;13386;24.786;110.488;2023-05-10T02:20:59;26.83;;;13.63;;
22883;SDS011;13386;24.786;110.488;2023-05-10T02:23:30;30.98;;;13.82;;
22883;SDS011;13386;24.786;110.488;2023-05-10T02:26:00;34.67;;;14.93;;
22883;SDS011;13386;24.786;110.488;2023-05-10T02:28:32;33.80;;;14.90;;
22883;SDS011;13386;24.786;110.488;2023-05-10T02:31:04;32.95;;;14.68;;
22883;SDS011;13386;24.786;110.488;2023-05-10T02:33:40;29.60;;;14.32;;
22883;SDS011;13386;24.786;110.488;2023-05-10T02:36:11;30.95;;;13.73;;
22883;SDS011;13386;24.786;110.488;2023-05-10T02:38:42;27.95;;;14.18;;
22883;SDS011;13386;24.786;110.488;2023-05-10T02:41:13;29.50;;;14.10;;
22883;SDS011;13386;24.786;110.488;2023-05-10T02:43:43;30.33;;;13.98;;
22883;SDS011;13386;24.786;110.488;2023-05-10T02:46:16;30.55;;;14.45;;
22883;SDS011;13386;24.786;110.488;2023-05-10T02:48:47;35.10;;;15.57;;
22883;SDS011;13386;24.786;110.488;2023-05-10T02:51:18;30.60;;;14.63;;
22883;SDS011;13386;24.786;110.488;2023-05-10T02:53:48;30.55;;;14.40;;
22883;SDS011;13386;24.786;110.488;2023-05-10T02:56:21;29.10;;;14.55;;
22883;SDS011;13386;24.786;110.488;2023-05-10T02:58:52;29.63;;;14.20;;
22883;SDS011;13386;24.786;110.488;2023-05-10T03:01:22;30.55;;;14.65;;
22883;SDS011;13386;24.786;110.488;2023-05-10T03:03:54;30.60;;;13.90;;
22883;SDS011;13386;24.786;110.488;2023-05-10T03:06:25;31.42;;;14.27;;
22883;SDS011;13386;24.786;110.488;2023-05-10T03:08:55;31.42;;;13.82;;
22883;SDS011;13386;24.786;110.488;2023-05-10T03:11:34;26.08;;;13.63;;
22883;SDS011;13386;24.786;110.488;2023-05-10T03:14:10;31.15;;;14.63;;
22883;SDS011;13386;24.786;110.488;2023-05-10T03:16:44;30.77;;;14.00;;
22883;SDS011;13386;24.786;110.488;2023-05-10T03:19:20;28.05;;;13.73;;
22883;SDS011;13386;24.786;110.488;2023-05-10T03:21:53;29.38;;;14.27;;
22883;SDS011;13386;24.786;110.488;2023-05-10T03:24:25;31.95;;;15.32;;
22883;SDS011;13386;24.786;110.488;2023-05-10T03:26:59;32.17;;;14.75;;
22883;SDS011;13386;24.786;110.488;2023-05-10T03:29:31;29.75;;;15.07;;
22883;SDS011;13386;24.786;110.488;2023-05-10T03:32:02;32.70;;;15.57;;
22883;SDS011;13386;24.786;110.488;2023-05-10T03:34:35;32.75;;;15.00;;
22883;SDS011;13386;24.786;110.488;2023-05-10T03:37:11;28.75;;;14.70;;
22883;SDS011;13386;24.786;110.488;2023-05-10T03:39:41;30.10;;;15.05;;
22883;SDS011;13386;24.786;110.488;2023-05-10T03:42:12;31.60;;;15.50;;
22883;SDS011;13386;24.786;110.488;2023-05-10T03:44:44;31.48;;;14.68;;
22883;SDS011;13386;24.786;110.488;2023-05-10T03:47:15;35.72;;;16.25;;
22883;SDS011;13386;24.786;110.488;2023-05-10T03:49:52;33.08;;;15.43;;
22883;SDS011;13386;24.786;110.488;2023-05-10T03:52:23;38.38;;;16.50;;
22883;SDS011;13386;24.786;110.488;2023-05-10T03:54:53;32.00;;;15.57;;
22883;SDS011;13386;24.786;110.488;2023-05-10T03:57:24;38.33;;;16.33;;
22883;SDS011;13386;24.786;110.488;2023-05-10T03:59:57;38.15;;;16.90;;
22883;SDS011;13386;24.786;110.488;2023-05-10T04:02:28;39.22;;;17.17;;
22883;SDS011;13386;24.786;110.488;2023-05-10T04:05:02;52.00;;;19.33;;
22883;SDS011;13386;24.786;110.488;2023-05-10T04:07:32;43.70;;;19.23;;
22883;SDS011;13386;24.786;110.488;2023-05-10T04:10:02;45.20;;;19.35;;
22883;SDS011;13386;24.786;110.488;2023-05-10T04:12:33;65.00;;;21.80;;
22883;SDS011;13386;24.786;110.488;2023-05-10T04:15:03;52.28;;;20.15;;
22883;SDS011;13386;24.786;110.488;2023-05-10T04:17:37;40.30;;;18.50;;
22883;SDS011;13386;24.786;110.488;2023-05-10T04:20:09;47.22;;;19.45;;
22883;SDS011;13386;24.786;110.488;2023-05-10T04:22:41;42.15;;;18.05;;
22883;SDS011;13386;24.786;110.488;2023-05-10T04:25:12;38.70;;;17.60;;
22883;SDS011;13386;24.786;110.488;2023-05-10T04:27:43;32.63;;;15.98;;
22883;SDS011;13386;24.786;110.488;2023-05-10T04:30:13;33.00;;;14.63;;
22883;SDS011;13386;24.786;110.488;2023-05-10T04:32:43;22.83;;;10.18;;
22883;SDS011;13386;24.786;110.488;2023-05-10T04:35:15;18.67;;;9.65;;
22883;SDS011;13386;24.786;110.488;2023-05-10T04:37:46;13.32;;;7.18;;
22883;SDS011;13386;24.786;110.488;2023-05-10T04:40:17;14.15;;;6.97;;
22883;SDS011;13386;24.786;110.488;2023-05-10T04:42:51;12.77;;;6.72;;
22883;SDS011;13386;24.786;110.488;2023-05-10T04:45:24;9.85;;;5.60;;
22883;SDS011;13386;24.786;110.488;2023-05-10T04:47:54;9.70;;;5.35;;
22883;SDS011;13386;24.786;110.488;2023-05-10T04:50:28;9.85;;;5.47;;
22883;SDS011;13386;24.786;110.488;2023-05-10T04:53:00;10.13;;;5.47;;
22883;SDS011;13386;24.786;110.488;2023-05-10T04:55:31;8.13;;;4.47;;
22883;SDS011;13386;24.786;110.488;2023-05-10T04:58:02;7.82;;;5.00;;
22883;SDS011;13386;24.786;110.488;2023-05-10T05:00:33;8.15;;;4.15;;
22883;SDS011;13386;24.786;110.488;2023-05-10T05:03:04;8.85;;;4.90;;
22883;SDS011;13386;24.786;110.488;2023-05-10T05:05:35;8.68;;;4.70;;
22883;SDS011;13386;24.786;110.488;2023-05-10T05:08:06;9.57;;;4.30;;
22883;SDS011;13386;24.786;110.488;2023-05-10T05:10:36;9.38;;;4.32;;
22883;SDS011;13386;24.786;110.488;2023-05-10T05:13:09;8.10;;;4.55;;
22883;SDS011;13386;24.786;110.488;2023-05-10T05:15:41;8.38;;;4.40;;
22883;SDS011;13386;24.786;110.488;2023-05-10T05:18:13;7.88;;;4.85;;
22883;SDS011;13386;24.786;110.488;2023-05-10T05:20:46;7.30;;;3.70;;
22883;SDS011;13386;24.786;110.488;2023-05-10T05:23:18;6.95;;;4.30;;
22883;SDS011;13386;24.786;110.488;2023-05-10T05:25:51;9.77;;;4.85;;
22883;SDS011;13386;24.786;110.488;2023-05-10T05:28:24;7.13;;;4.63;;
22883;SDS011;13386;24.786;110.488;2023-05-10T05:30:59;6.43;;;3.95;;
22883;SDS011;13386;24.786;110.488;2023-05-10T05:33:29;6.57;;;3.78;;
22883;SDS011;13386;24.786;110.488;2023-05-10T05:36:03;7.00;;;3.67;;
22883;SDS011;13386;24.786;110.488;2023-05-10T05:38:33;8.73;;;3.40;;
22883;SDS011;13386;24.786;110.488;2023-05-10T05:41:03;6.95;;;3.53;;
22883;SDS011;13386;24.786;110.488;2023-05-10T05:43:34;6.85;;;3.50;;
22883;SDS011;13386;24.786;110.488;2023-05-10T05:46:04;5.88;;;3.60;;
22883;SDS011;13386;24.786;110.488;2023-05-10T05:48:34;6.05;;;2.95;;
22883;SDS011;13386;24.786;110.488;2023-05-10T05:51:07;5.47;;;2.83;;
22883;SDS011;13386;24.786;110.488;2023-05-10T05:53:41;5.80;;;2.58;;
22883;SDS011;13386;24.786;110.488;2023-05-10T05:56:11;4.78;;;2.95;;
22883;SDS011;13386;24.786;110.488;2023-05-10T05:58:41;4.10;;;2.65;;
22883;SDS011;13386;24.786;110.488;2023-05-10T06:01:12;4.18;;;2.70;;
22883;SDS011;13386;24.786;110.488;2023-05-10T06:03:42;8.68;;;2.90;;
22883;SDS011;13386;24.786;110.488;2023-05-10T06:06:19;4.78;;;2.80;;
22883;SDS011;13386;24.786;110.488;2023-05-10T06:08:49;4.95;;;3.00;;
22883;SDS011;13386;24.786;110.488;2023-05-10T06:11:21;8.00;;;3.10;;
22883;SDS011;13386;24.786;110.488;2023-05-10T06:13:55;5.07;;;2.97;;
22883;SDS011;13386;24.786;110.488;2023-05-10T06:16:26;6.97;;;3.03;;
22883;SDS011;13386;24.786;110.488;2023-05-10T06:18:56;3.92;;;2.45;;
22883;SDS011;13386;24.786;110.488;2023-05-10T06:21:28;4.10;;;2.58;;
22883;SDS011;13386;24.786;110.488;2023-05-10T06:23:58;4.70;;;2.40;;
22883;SDS011;13386;24.786;110.488;2023-05-10T06:26:32;5.47;;;2.80;;
22883;SDS011;13386;24.786;110.488;2023-05-10T06:29:02;3.80;;;2.38;;
22883;SDS011;13386;24.786;110.488;2023-05-10T06:31:33;5.28;;;2.72;;
22883;SDS011;13386;24.786;110.488;2023-05-10T06:34:03;6.43;;;2.55;;
22883;SDS011;13386;24.786;110.488;2023-05-10T06:36:38;4.10;;;2.33;;
22883;SDS011;13386;24.786;110.488;2023-05-10T06:39:09;3.90;;;2.10;;
22883;SDS011;13386;24.786;110.488;2023-05-10T06:41:39;3.88;;;2.00;;
22883;SDS011;13386;24.786;110.488;2023-05-10T06:44:09;6.07;;;2.45;;
22883;SDS011;13386;24.786;110.488;2023-05-10T06:46:40;0.00;;;0.00;;
22883;SDS011;13386;24.786;110.488;2023-05-10T06:49:11;0.00;;;0.00;;
22883;SDS011;13386;24.786;110.488;2023-05-10T06:51:44;0.08;;;0.08;;
22883;SDS011;13386;24.786;110.488;2023-05-10T06:54:15;0.00;;;0.00;;
22883;SDS011;13386;24.786;110.488;2023-05-10T06:56:46;0.00;;;0.00;;
22883;SDS011;13386;24.786;110.488;2023-05-10T06:59:16;0.00;;;0.00;;
22883;SDS011;13386;24.786;110.488;2023-05-10T07:01:47;0.00;;;0.00;;
22883;SDS011;13386;24.786;110.488;2023-05-10T07:04:26;0.00;;;0.00;;
22883;SDS011;13386;24.786;110.488;2023-05-10T07:06:58;3.42;;;0.38;;
22883;SDS011;13386;24.786;110.488;2023-05-10T07:09:30;0.00;;;0.00;;
22883;SDS011;13386;24.786;110.488;2023-05-10T07:12:00;0.00;;;0.00;;
22883;SDS011;13386;24.786;110.488;2023-05-10T07:14:34;0.00;;;0.00;;
22883;SDS011;13386;24.786;110.488;2023-05-10T07:17:04;0.20;;;0.20;;
22883;SDS011;13386;24.786;110.488;2023-05-10T07:19:36;0.00;;;0.00;;
22883;SDS011;13386;24.786;110.488;2023-05-10T07:22:08;0.00;;;0.00;;
22883;SDS011;13386;24.786;110.488;2023-05-10T07:24:39;0.00;;;0.00;;
22883;SDS011;13386;24.786;110.488;2023-05-10T07:27:12;0.00;;;0.00;;
22883;SDS011;13386;24.786;110.488;2023-05-10T07:29:43;0.00;;;0.00;;
22883;SDS011;13386;24.786;110.488;2023-05-10T07:32:14;0.00;;;0.00;;
22883;SDS011;13386;24.786;110.488;2023-05-10T07:34:44;0.08;;;0.08;;
22883;SDS011;13386;24.786;110.488;2023-05-10T07:37:16;0.13;;;0.13;;
22883;SDS011;13386;24.786;110.488;2023-05-10T07:39:46;0.10;;;0.10;;
22883;SDS011;13386;24.786;110.488;2023-05-10T07:42:16;0.00;;;0.00;;
22883;SDS011;13386;24.786;110.488;2023-05-10T07:44:49;0.00;;;0.00;;
22883;SDS011;13386;24.786;110.488;2023-05-10T07:47:20;0.00;;;0.00;;
22883;SDS011;13386;24.786;110.488;2023-05-10T07:49:53;0.00;;;0.00;;
22883;SDS011;13386;24.786;110.488;2023-05-10T07:52:34;0.00;;;0.00;;
22883;SDS011;13386;24.786;110.488;2023-05-10T07:55:05;0.00;;;0.00;;
22883;SDS011;13386;24.786;110.488;2023-05-10T07:57:35;0.00;;;0.00;;
22883;SDS011;13386;24.786;110.488;2023-05-10T08:00:06;0.00;;;0.00;;
22883;SDS011;13386;24.786;110.488;2023-05-10T08:02:42;0.30;;;0.20;;
22883;SDS011;13386;24.786;110.488;2023-05-10T08:05:12;0.00;;;0.00;;
22883;SDS011;13386;24.786;110.488;2023-05-10T08:07:45;0.00;;;0.00;;
22883;SDS011;13386;24.786;110.488;2023-05-10T08:10:15;0.00;;;0.00;;
22883;SDS011;13386;24.786;110.488;2023-05-10T08:12:50;0.00;;;0.00;;
22883;SDS011;13386;24.786;110.488;2023-05-10T08:15:20;0.10;;;0.10;;
22883;SDS011;13386;24.786;110.488;2023-05-10T08:17:50;1.65;;;0.40;;
22883;SDS011;13386;24.786;110.488;2023-05-10T08:20:22;0.20;;;0.05;;
22883;SDS011;13386;24.786;110.488;2023-05-10T08:22:54;0.00;;;0.00;;
22883;SDS011;13386;24.786;110.488;2023-05-10T08:25:24;0.00;;;0.00;;
22883;SDS011;13386;24.786;110.488;2023-05-10T08:27:55;0.00;;;0.00;;
22883;SDS011;13386;24.786;110.488;2023-05-10T08:30:25;0.00;;;0.00;;
22883;SDS011;13386;24.786;110.488;2023-05-10T08:32:56;0.00;;;0.00;;
22883;SDS011;13386;24.786;110.488;2023-05-10T08:35:26;0.00;;;0.00;;
22883;SDS011;13386;24.786;110.488;2023-05-10T08:38:01;2.30;;;0.90;;
22883;SDS011;13386;24.786;110.488;2023-05-10T08:40:32;0.85;;;0.40;;
22883;SDS011;13386;24.786;110.488;2023-05-10T08:43:05;7.20;;;3.83;;
22883;SDS011;13386;24.786;110.488;2023-05-10T08:45:36;9.07;;;4.13;;
22883;SDS011;13386;24.786;110.488;2023-05-10T08:48:07;7.93;;;4.15;;
22883;SDS011;13386;24.786;110.488;2023-05-10T08:50:37;5.43;;;3.30;;
22883;SDS011;13386;24.786;110.488;2023-05-10T08:53:11;6.75;;;3.80;;
22883;SDS011;13386;24.786;110.488;2023-05-10T08:55:41;6.90;;;3.80;;
22883;SDS011;13386;24.786;110.488;2023-05-10T08:58:12;7.30;;;3.88;;
22883;SDS011;13386;24.786;110.488;2023-05-10T09:00:42;7.88;;;3.70;;
22883;SDS011;13386;24.786;110.488;2023-05-10T09:03:12;10.05;;;4.13;;
22883;SDS011;13386;24.786;110.488;2023-05-10T09:05:42;6.95;;;3.80;;
22883;SDS011;13386;24.786;110.488;2023-05-10T09:08:16;8.57;;;4.25;;
22883;SDS011;13386;24.786;110.488;2023-05-10T09:10:49;39.05;;;10.57;;
22883;SDS011;13386;24.786;110.488;2023-05-10T09:13:19;8.95;;;4.47;;
22883;SDS011;13386;24.786;110.488;2023-05-10T09:15:50;9.98;;;4.28;;
22883;SDS011;13386;24.786;110.488;2023-05-10T09:18:21;7.47;;;4.10;;
22883;SDS011;13386;24.786;110.488;2023-05-10T09:20:51;10.13;;;5.07;;
22883;SDS011;13386;24.786;110.488;2023-05-10T09:23:23;7.32;;;4.43;;
22883;SDS011;13386;24.786;110.488;2023-05-10T09:26:02;9.35;;;4.60;;
22883;SDS011;13386;24.786;110.488;2023-05-10T09:28:34;10.10;;;3.83;;
22883;SDS011;13386;24.786;110.488;2023-05-10T09:31:04;6.57;;;3.72;;
22883;SDS011;13386;24.786;110.488;2023-05-10T09:33:41;8.38;;;4.30;;
22883;SDS011;13386;24.786;110.488;2023-05-10T09:36:13;7.95;;;4.20;;
22883;SDS011;13386;24.786;110.488;2023-05-10T09:38:50;8.88;;;4.13;;
22883;SDS011;13386;24.786;110.488;2023-05-10T09:41:23;17.00;;;5.75;;
22883;SDS011;13386;24.786;110.488;2023-05-10T09:43:56;9.80;;;4.45;;
22883;SDS011;13386;24.786;110.488;2023-05-10T09:46:26;10.70;;;5.18;;
22883;SDS011;13386;24.786;110.488;2023-05-10T09:48:56;12.18;;;5.65;;
22883;SDS011;13386;24.786;110.488;2023-05-10T09:51:27;8.77;;;5.07;;
22883;SDS011;13386;24.786;110.488;2023-05-10T09:54:10;11.07;;;5.72;;
22883;SDS011;13386;24.786;110.488;2023-05-10T09:56:40;13.63;;;6.72;;
22883;SDS011;13386;24.786;110.488;2023-05-10T09:59:11;14.05;;;6.85;;
22883;SDS011;13386;24.786;110.488;2023-05-10T10:01:42;14.63;;;7.30;;
22883;SDS011;13386;24.786;110.488;2023-05-10T10:04:20;17.40;;;6.97;;
22883;SDS011;13386;24.786;110.488;2023-05-10T10:06:59;20.65;;;8.52;;
22883;SDS011;13386;24.786;110.488;2023-05-10T10:09:31;14.65;;;7.13;;
22883;SDS011;13386;24.786;110.488;2023-05-10T10:12:03;18.23;;;8.45;;
22883;SDS011;13386;24.786;110.488;2023-05-10T10:14:35;16.63;;;8.02;;
22883;SDS011;13386;24.786;110.488;2023-05-10T10:17:05;16.85;;;7.75;;
22883;SDS011;13386;24.786;110.488;2023-05-10T10:19:36;17.70;;;8.43;;
22883;SDS011;13386;24.786;110.488;2023-05-10T10:22:06;14.98;;;7.38;;
22883;SDS011;13386;24.786;110.488;2023-05-10T10:24:39;16.00;;;7.03;;
22883;SDS011;13386;24.786;110.488;2023-05-10T10:27:14;15.75;;;7.35;;
22883;SDS011;13386;24.786;110.488;2023-05-10T10:29:49;15.02;;;7.32;;
22883;SDS011;13386;24.786;110.488;2023-05-10T10:32:32;15.23;;;6.65;;
22883;SDS011;13386;24.786;110.488;2023-05-10T10:35:09;12.75;;;6.80;;
22883;SDS011;13386;24.786;110.488;2023-05-10T10:37:43;11.98;;;6.88;;
22883;SDS011;13386;24.786;110.488;2023-05-10T10:40:25;13.32;;;7.05;;
22883;SDS011;13386;24.786;110.488;2023-05-10T10:42:55;11.13;;;5.85;;
22883;SDS011;13386;24.786;110.488;2023-05-10T10:45:26;17.60;;;6.80;;
22883;SDS011;13386;24.786;110.488;2023-05-10T10:51:02;14.67;;;7.27;;
22883;SDS011;13386;24.786;110.488;2023-05-10T10:53:38;12.73;;;6.68;;
22883;SDS011;13386;24.786;110.488;2023-05-10T10:56:10;14.45;;;7.22;;
22883;SDS011;13386;24.786;110.488;2023-05-10T11:01:13;16.05;;;7.70;;
22883;SDS011;13386;24.786;110.488;2023-05-10T11:06:30;17.83;;;8.15;;
22883;SDS011;13386;24.786;110.488;2023-05-10T11:09:00;16.20;;;7.97;;
22883;SDS011;13386;24.786;110.488;2023-05-10T11:11:48;16.90;;;8.15;;
22883;SDS011;13386;24.786;110.488;2023-05-10T11:14:19;14.57;;;7.15;;
22883;SDS011;13386;24.786;110.488;2023-05-10T11:16:50;19.50;;;8.10;;
22883;SDS011;13386;24.786;110.488;2023-05-10T11:19:24;15.75;;;7.43;;
22883;SDS011;13386;24.786;110.488;2023-05-10T11:22:12;14.32;;;7.35;;
22883;SDS011;13386;24.786;110.488;2023-05-10T11:24:56;14.98;;;7.47;;
22883;SDS011;13386;24.786;110.488;2023-05-10T11:27:28;15.65;;;8.05;;
22883;SDS011;13386;24.786;110.488;2023-05-10T11:30:01;14.38;;;7.72;;
22883;SDS011;13386;24.786;110.488;2023-05-10T11:32:31;15.30;;;7.70;;
22883;SDS011;13386;24.786;110.488;2023-05-10T11:35:05;15.77;;;7.78;;
22883;SDS011;13386;24.786;110.488;2023-05-10T11:37:36;13.88;;;7.63;;
22883;SDS011;13386;24.786;110.488;2023-05-10T11:40:08;14.95;;;6.72;;
22883;SDS011;13386;24.786;110.488;2023-05-10T11:42:40;15.48;;;7.00;;
22883;SDS011;13386;24.786;110.488;2023-05-10T11:45:11;11.82;;;6.07;;
22883;SDS011;13386;24.786;110.488;2023-05-10T11:47:48;9.68;;;5.32;;
22883;SDS011;13386;24.786;110.488;2023-05-10T11:50:19;9.77;;;4.75;;
22883;SDS011;13386;24.786;110.488;2023-05-10T11:52:50;8.45;;;4.40;;
22883;SDS011;13386;24.786;110.488;2023-05-10T11:55:22;7.93;;;4.65;;
22883;SDS011;13386;24.786;110.488;2023-05-10T11:58:01;8.38;;;4.68;;
22883;SDS011;13386;24.786;110.488;2023-05-10T12:00:39;12.73;;;5.30;;
22883;SDS011;13386;24.786;110.488;2023-05-10T12:03:09;9.23;;;5.07;;
22883;SDS011;13386;24.786;110.488;2023-05-10T12:05:40;8.48;;;4.70;;
22883;SDS011;13386;24.786;110.488;2023-05-10T12:08:14;13.10;;;5.13;;
22883;SDS011;13386;24.786;110.488;2023-05-10T12:10:46;15.52;;;5.97;;
22883;SDS011;13386;24.786;110.488;2023-05-10T12:13:18;0.00;;;0.00;;
22883;SDS011;13386;24.786;110.488;2023-05-10T12:15:49;0.17;;;0.10;;
22883;SDS011;13386;24.786;110.488;2023-05-10T12:18:22;0.00;;;0.00;;
22883;SDS011;13386;24.786;110.488;2023-05-10T12:20:55;0.00;;;0.00;;
22883;SDS011;13386;24.786;110.488;2023-05-10T12:23:34;0.08;;;0.08;;
22883;SDS011;13386;24.786;110.488;2023-05-10T12:26:06;0.00;;;0.00;;
22883;SDS011;13386;24.786;110.488;2023-05-10T12:28:40;3.75;;;0.40;;
22883;SDS011;13386;24.786;110.488;2023-05-10T12:31:14;1.35;;;0.47;;
22883;SDS011;13386;24.786;110.488;2023-05-10T12:33:44;0.10;;;0.10;;
22883;SDS011;13386;24.786;110.488;2023-05-10T12:36:16;0.00;;;0.00;;
22883;SDS011;13386;24.786;110.488;2023-05-10T12:38:47;0.10;;;0.10;;
22883;SDS011;13386;24.786;110.488;2023-05-10T12:41:19;0.15;;;0.15;;
22883;SDS011;13386;24.786;110.488;2023-05-10T12:43:58;0.00;;;0.00;;
22883;SDS011;13386;24.786;110.488;2023-05-10T12:46:35;0.00;;;0.00;;
22883;SDS011;13386;24.786;110.488;2023-05-10T12:49:05;0.00;;;0.00;;
22883;SDS011;13386;24.786;110.488;2023-05-10T12:51:36;0.60;;;0.32;;
22883;SDS011;13386;24.786;110.488;2023-05-10T12:54:06;0.00;;;0.00;;
22883;SDS011;13386;24.786;110.488;2023-05-10T12:56:38;0.88;;;0.45;;
22883;SDS011;13386;24.786;110.488;2023-05-10T12:59:14;1.40;;;0.47;;
22883;SDS011;13386;24.786;110.488;2023-05-10T13:01:46;0.47;;;0.20;;
22883;SDS011;13386;24.786;110.488;2023-05-10T13:04:17;0.08;;;0.08;;
22883;SDS011;13386;24.786;110.488;2023-05-10T13:06:48;0.00;;;0.00;;
22883;SDS011;13386;24.786;110.488;2023-05-10T13:09:18;0.00;;;0.00;;
22883;SDS011;13386;24.786;110.488;2023-05-10T13:11:49;0.10;;;0.00;;
22883;SDS011;13386;24.786;110.488;2023-05-10T13:14:22;2.08;;;0.55;;
22883;SDS011;13386;24.786;110.488;2023-05-10T13:16:52;0.00;;;0.00;;
22883;SDS011;13386;24.786;110.488;2023-05-10T13:19:26;0.20;;;0.10;;
22883;SDS011;13386;24.786;110.488;2023-05-10T13:21:57;0.00;;;0.00;;
22883;SDS011;13386;24.786;110.488;2023-05-10T13:24:30;0.00;;;0.00;;
22883;SDS011;13386;24.786;110.488;2023-05-10T13:27:05;0.22;;;0.22;;
22883;SDS011;13386;24.786;110.488;2023-05-10T13:29:37;0.93;;;0.35;;
22883;SDS011;13386;24.786;110.488;2023-05-10T13:32:08;0.00;;;0.00;;
22883;SDS011;13386;24.786;110.488;2023-05-10T13:34:38;0.00;;;0.00;;
22883;SDS011;13386;24.786;110.488;2023-05-10T13:37:11;0.10;;;0.10;;
22883;SDS011;13386;24.786;110.488;2023-05-10T13:39:43;0.00;;;0.00;;
22883;SDS011;13386;24.786;110.488;2023-05-10T13:42:14;0.00;;;0.00;;
22883;SDS011;13386;24.786;110.488;2023-05-10T13:44:49;0.00;;;0.00;;
22883;SDS011;13386;24.786;110.488;2023-05-10T13:47:21;0.10;;;0.10;;
22883;SDS011;13386;24.786;110.488;2023-05-10T13:49:52;0.00;;;0.00;;
22883;SDS011;13386;24.786;110.488;2023-05-10T13:52:26;0.00;;;0.00;;
22883;SDS011;13386;24.786;110.488;2023-05-10T13:54:58;0.00;;;0.00;;
22883;SDS011;13386;24.786;110.488;2023-05-10T13:57:30;0.00;;;0.00;;
22883;SDS011;13386;24.786;110.488;2023-05-10T14:00:07;0.10;;;0.10;;
22883;SDS011;13386;24.786;110.488;2023-05-10T14:02:39;0.00;;;0.00;;
22883;SDS011;13386;24.786;110.488;2023-05-10T14:05:10;0.20;;;0.20;;
22883;SDS011;13386;24.786;110.488;2023-05-10T14:07:40;0.32;;;0.25;;
22883;SDS011;13386;24.786;110.488;2023-05-10T14:10:15;0.10;;;0.10;;
22883;SDS011;13386;24.786;110.488;2023-05-10T14:12:49;0.20;;;0.10;;
22883;SDS011;13386;24.786;110.488;2023-05-10T14:15:28;0.10;;;0.10;;
22883;SDS011;13386;24.786;110.488;2023-05-10T14:18:06;0.00;;;0.00;;
22883;SDS011;13386;24.786;110.488;2023-05-10T14:20:38;0.00;;;0.00;;
22883;SDS011;13386;24.786;110.488;2023-05-10T14:23:14;0.05;;;0.05;;
22883;SDS011;13386;24.786;110.488;2023-05-10T14:25:46;0.20;;;0.10;;
22883;SDS011;13386;24.786;110.488;2023-05-10T14:28:21;0.10;;;0.10;;
22883;SDS011;13386;24.786;110.488;2023-05-10T14:30:55;0.80;;;0.17;;
22883;SDS011;13386;24.786;110.488;2023-05-10T14:33:26;0.55;;;0.52;;
22883;SDS011;13386;24.786;110.488;2023-05-10T14:36:05;0.00;;;0.00;;
22883;SDS011;13386;24.786;110.488;2023-05-10T14:38:37;0.90;;;0.30;;
22883;SDS011;13386;24.786;110.488;2023-05-10T14:41:10;0.00;;;0.00;;
22883;SDS011;13386;24.786;110.488;2023-05-10T14:43:43;0.00;;;0.00;;
22883;SDS011;13386;24.786;110.488;2023-05-10T14:46:17;0.00;;;0.00;;
22883;SDS011;13386;24.786;110.488;2023-05-10T14:48:50;0.00;;;0.00;;
22883;SDS011;13386;24.786;110.488;2023-05-10T14:51:23;0.00;;;0.00;;